Time;durP1;ratioP1;P1;durP2;ratioP2;P2;SDS_P1;SDS_P2;PMS_P1;PMS_P2;Temp;Humidity;BMP_temperature;BMP_pressure;BME280_temperature;BME280_humidity;BME280_pressure;Samples;Min_cycle;Max_cycle;Signal;HPM_P1;HPM_P2
2021/09/17 00:01:24;;;;;;;14.00;8.73;;;;;;;;;;6245512;28;20133;-80
2021/09/17 00:04:26;;;;;;;25.23;8.55;;;;;;;;;;6243871;28;20041;-82
2021/09/17 00:07:28;;;;;;;20.00;7.90;;;;;;;;;;6245512;28;20041;-81
2021/09/17 00:10:29;;;;;;;22.88;8.18;;;;;;;;;;6244025;28;20041;-79
2021/09/17 00:13:31;;;;;;;14.43;7.88;;;;;;;;;;6242258;28;20798;-81
2021/09/17 00:16:32;;;;;;;27.70;8.77;;;;;;;;;;6240281;28;20034;-81
2021/09/17 00:19:34;;;;;;;34.17;8.80;;;;;;;;;;6241185;28;20041;-79
2021/09/17 00:22:36;;;;;;;16.70;9.35;;;;;;;;;;6239887;28;20120;-81
2021/09/17 00:25:38;;;;;;;31.20;10.13;;;;;;;;;;6240015;28;20041;-79
2021/09/17 00:28:40;;;;;;;21.52;11.20;;;;;;;;;;6242670;28;20056;-79
2021/09/17 00:31:41;;;;;;;58.42;12.43;;;;;;;;;;6231353;28;20124;-79
2021/09/17 00:34:43;;;;;;;56.00;12.90;;;;;;;;;;6240778;28;20052;-78
2021/09/17 00:37:44;;;;;;;37.67;11.90;;;;;;;;;;6240296;28;20049;-81
2021/09/17 00:40:46;;;;;;;41.17;12.07;;;;;;;;;;6236720;28;20049;-81
2021/09/17 00:43:48;;;;;;;33.97;11.27;;;;;;;;;;6216608;28;20115;-81
2021/09/17 00:46:50;;;;;;;18.92;9.77;;;;;;;;;;6233938;28;20627;-80
2021/09/17 00:49:52;;;;;;;12.32;8.63;;;;;;;;;;6239618;28;20043;-80
2021/09/17 00:52:53;;;;;;;15.77;9.73;;;;;;;;;;6239287;28;20041;-81
2021/09/17 00:55:55;;;;;;;10.98;8.05;;;;;;;;;;6236902;28;20079;-80
2021/09/17 00:58:58;;;;;;;11.45;8.63;;;;;;;;;;6240825;28;20048;-78
2021/09/17 01:01:59;;;;;;;13.50;9.18;;;;;;;;;;6205674;28;20048;-81
2021/09/17 01:05:03;;;;;;;14.10;9.52;;;;;;;;;;6197887;28;20045;-80
2021/09/17 01:08:05;;;;;;;;;;;;;;;;;;6216827;28;20530;-81
2021/09/17 01:11:07;;;;;;;14.63;9.10;;;;;;;;;;6252215;28;19925;-80
2021/09/17 01:14:09;;;;;;;21.70;9.38;;;;;;;;;;6239981;28;20171;-81
2021/09/17 01:17:11;;;;;;;21.57;8.23;;;;;;;;;;6231758;28;20041;-81
2021/09/17 01:20:18;;;;;;;14.57;9.07;;;;;;;;;;6239042;28;20052;-81
2021/09/17 01:23:19;;;;;;;18.45;9.15;;;;;;;;;;6239960;28;20708;-81
2021/09/17 01:26:21;;;;;;;16.33;9.20;;;;;;;;;;6237186;28;20075;-80
2021/09/17 01:29:23;;;;;;;14.45;9.70;;;;;;;;;;6240483;28;20048;-81
2021/09/17 01:32:25;;;;;;;18.13;9.60;;;;;;;;;;6237229;28;20045;-80
2021/09/17 01:35:26;;;;;;;19.70;9.30;;;;;;;;;;6240104;28;20046;-80
2021/09/17 01:38:30;;;;;;;17.80;9.77;;;;;;;;;;6228636;28;20041;-81
2021/09/17 01:41:32;;;;;;;29.33;10.50;;;;;;;;;;6234966;28;20042;-79
2021/09/17 01:44:35;;;;;;;48.92;9.93;;;;;;;;;;6229869;28;20041;-80
2021/09/17 01:47:38;;;;;;;32.55;11.65;;;;;;;;;;6229754;28;20061;-80
2021/09/17 01:50:40;;;;;;;40.60;10.13;;;;;;;;;;6238455;28;20053;-81
2021/09/17 01:53:43;;;;;;;22.63;9.95;;;;;;;;;;6237106;28;20522;-78
2021/09/17 01:56:45;;;;;;;53.85;11.15;;;;;;;;;;6236272;28;20048;-81
2021/09/17 01:59:46;;;;;;;24.52;9.43;;;;;;;;;;6237612;28;20071;-79
2021/09/17 02:02:50;;;;;;;26.23;9.95;;;;;;;;;;6253296;28;20050;-80
2021/09/17 02:05:52;;;;;;;37.05;10.07;;;;;;;;;;6239494;28;20126;-79
2021/09/17 02:08:55;;;;;;;22.77;9.88;;;;;;;;;;6239508;28;20041;-80
2021/09/17 02:11:56;;;;;;;;;;;;;;;;;;6238390;28;20041;-81
2021/09/17 02:14:58;;;;;;;23.58;9.50;;;;;;;;;;6236252;28;19921;-81
2021/09/17 02:18:00;;;;;;;30.85;9.35;;;;;;;;;;6239786;28;20053;-80
2021/09/17 02:21:02;;;;;;;18.08;10.15;;;;;;;;;;6240177;28;20048;-79
2021/09/17 02:24:05;;;;;;;13.10;8.45;;;;;;;;;;6238157;28;20045;-78
2021/09/17 02:27:06;;;;;;;13.23;8.75;;;;;;;;;;6240315;28;20045;-81
2021/09/17 02:30:09;;;;;;;14.50;8.85;;;;;;;;;;6243317;28;20511;-79
2021/09/17 02:33:11;;;;;;;15.52;8.50;;;;;;;;;;6243713;28;20123;-80
2021/09/17 02:36:13;;;;;;;10.60;7.97;;;;;;;;;;6245206;28;20045;-81
2021/09/17 02:39:15;;;;;;;16.15;8.23;;;;;;;;;;6243178;28;20107;-78
2021/09/17 02:42:17;;;;;;;28.75;8.77;;;;;;;;;;6226580;28;20047;-79
2021/09/17 02:45:19;;;;;;;17.20;8.23;;;;;;;;;;6241080;28;20708;-80
2021/09/17 02:48:21;;;;;;;17.15;8.73;;;;;;;;;;6233215;28;20555;-81
2021/09/17 02:51:22;;;;;;;13.85;8.45;;;;;;;;;;6235987;28;20105;-80
2021/09/17 02:54:24;;;;;;;15.80;7.85;;;;;;;;;;6242272;28;20052;-81
2021/09/17 02:57:26;;;;;;;13.95;8.52;;;;;;;;;;6243564;28;20414;-78
2021/09/17 03:00:27;;;;;;;14.52;9.05;;;;;;;;;;6237972;28;20046;-82
2021/09/17 03:03:30;;;;;;;15.35;9.25;;;;;;;;;;6241337;28;20041;-81
2021/09/17 03:06:31;;;;;;;17.02;9.38;;;;;;;;;;6242714;28;20126;-78
2021/09/17 03:09:33;;;;;;;15.00;8.82;;;;;;;;;;6242835;28;20392;-80
2021/09/17 03:12:35;;;;;;;11.05;7.28;;;;;;;;;;6243314;28;20053;-81
2021/09/17 03:15:38;;;;;;;25.85;8.82;;;;;;;;;;6241565;28;20396;-79
2021/09/17 03:18:39;;;;;;;13.77;7.75;;;;;;;;;;6243788;28;20418;-81
2021/09/17 03:21:41;;;;;;;28.27;8.80;;;;;;;;;;6242532;28;20052;-78
2021/09/17 03:24:43;;;;;;;29.15;7.68;;;;;;;;;;6241698;28;20055;-79
2021/09/17 03:27:45;;;;;;;37.08;9.30;;;;;;;;;;6241655;28;20057;-80
2021/09/17 03:30:47;;;;;;;44.70;8.77;;;;;;;;;;6241504;28;20493;-81
2021/09/17 03:33:48;;;;;;;27.55;9.45;;;;;;;;;;6242145;28;20038;-82
2021/09/17 03:36:50;;;;;;;58.92;10.70;;;;;;;;;;6241742;28;20132;-78
2021/09/17 03:39:52;;;;;;;41.53;10.10;;;;;;;;;;6241521;28;20041;-78
2021/09/17 03:42:53;;;;;;;33.85;9.88;;;;;;;;;;6240675;28;20124;-79
2021/09/17 03:45:55;;;;;;;39.65;10.23;;;;;;;;;;6233573;28;20046;-80
2021/09/17 03:48:56;;;;;;;39.92;11.48;;;;;;;;;;6242071;28;20048;-81
2021/09/17 03:51:58;;;;;;;56.15;10.77;;;;;;;;;;6243356;28;20421;-80
2021/09/17 03:55:00;;;;;;;26.02;11.30;;;;;;;;;;6239357;28;20053;-79
2021/09/17 03:58:03;;;;;;;74.93;12.43;;;;;;;;;;6242905;28;20461;-79
2021/09/17 04:01:04;;;;;;;78.18;12.98;;;;;;;;;;6240555;28;20127;-80
2021/09/17 04:04:06;;;;;;;38.20;12.18;;;;;;;;;;6241873;28;20037;-80
2021/09/17 04:07:08;;;;;;;69.35;12.60;;;;;;;;;;6242431;28;20167;-79
2021/09/17 04:10:14;;;;;;;51.88;12.10;;;;;;;;;;6241494;28;20120;-81
2021/09/17 04:13:15;;;;;;;88.10;14.15;;;;;;;;;;6241851;28;20045;-82
2021/09/17 04:16:17;;;;;;;60.17;12.05;;;;;;;;;;6241189;28;20052;-80
2021/09/17 04:19:19;;;;;;;34.67;11.07;;;;;;;;;;6242766;28;20045;-78
2021/09/17 04:22:21;;;;;;;68.38;13.73;;;;;;;;;;6223983;28;20396;-81
2021/09/17 04:25:22;;;;;;;56.90;10.85;;;;;;;;;;6222706;28;20056;-81
2021/09/17 04:28:24;;;;;;;20.42;10.23;;;;;;;;;;6224421;28;20049;-81
2021/09/17 04:31:25;;;;;;;24.20;9.18;;;;;;;;;;6236084;28;20045;-78
2021/09/17 04:34:27;;;;;;;70.78;12.35;;;;;;;;;;6240238;28;20084;-79
2021/09/17 04:37:29;;;;;;;44.20;10.73;;;;;;;;;;6237229;28;20057;-80
2021/09/17 04:40:30;;;;;;;40.33;9.70;;;;;;;;;;6239762;28;20037;-79
2021/09/17 04:43:32;;;;;;;35.72;9.45;;;;;;;;;;6240013;28;20057;-78
2021/09/17 04:46:34;;;;;;;47.10;10.57;;;;;;;;;;6239279;28;20085;-80
2021/09/17 04:49:35;;;;;;;37.88;9.13;;;;;;;;;;6238527;28;20053;-78
2021/09/17 04:52:37;;;;;;;32.65;8.73;;;;;;;;;;6239335;28;20049;-80
2021/09/17 04:55:39;;;;;;;26.42;10.23;;;;;;;;;;6237690;28;20043;-79
2021/09/17 04:58:41;;;;;;;54.85;10.68;;;;;;;;;;6239749;28;20049;-79
2021/09/17 05:01:42;;;;;;;26.38;10.38;;;;;;;;;;6237412;28;20041;-80
2021/09/17 05:04:44;;;;;;;25.13;9.90;;;;;;;;;;6239170;28;20050;-81
2021/09/17 05:07:46;;;;;;;20.85;9.32;;;;;;;;;;6227439;28;20087;-78
2021/09/17 05:10:48;;;;;;;20.35;8.63;;;;;;;;;;6237801;28;20192;-78
2021/09/17 05:13:49;;;;;;;16.35;8.82;;;;;;;;;;6224098;28;20041;-80
2021/09/17 05:16:51;;;;;;;53.70;8.85;;;;;;;;;;6218746;28;20044;-80
2021/09/17 05:19:53;;;;;;;26.17;8.70;;;;;;;;;;6236990;28;20128;-80
2021/09/17 05:22:54;;;;;;;31.75;8.90;;;;;;;;;;6238754;28;20037;-80
2021/09/17 05:25:56;;;;;;;16.15;7.63;;;;;;;;;;6234230;28;20049;-79
2021/09/17 05:28:57;;;;;;;33.65;10.50;;;;;;;;;;6227869;28;20042;-80
2021/09/17 05:32:00;;;;;;;44.58;10.43;;;;;;;;;;6231440;28;20057;-78
2021/09/17 05:35:03;;;;;;;53.13;10.68;;;;;;;;;;6238304;28;20053;-78
2021/09/17 05:38:05;;;;;;;56.03;10.65;;;;;;;;;;6238700;28;20056;-80
2021/09/17 05:41:07;;;;;;;44.17;9.52;;;;;;;;;;6233335;28;20113;-78
2021/09/17 05:44:08;;;;;;;65.20;12.18;;;;;;;;;;6232040;28;20053;-80
2021/09/17 05:47:10;;;;;;;60.00;9.45;;;;;;;;;;6235988;28;20041;-79
2021/09/17 05:50:13;;;;;;;59.50;9.90;;;;;;;;;;6238019;28;20041;-80
2021/09/17 05:53:15;;;;;;;22.30;8.18;;;;;;;;;;6231575;28;20051;-79
2021/09/17 05:56:16;;;;;;;58.22;10.18;;;;;;;;;;6233431;28;20045;-78
2021/09/17 05:59:18;;;;;;;17.48;8.15;;;;;;;;;;6234583;28;20057;-80
2021/09/17 06:02:20;;;;;;;12.70;7.80;;;;;;;;;;6211229;28;20048;-80
2021/09/17 06:05:22;;;;;;;23.75;7.90;;;;;;;;;;6218910;28;20052;-78
2021/09/17 06:08:23;;;;;;;14.80;8.63;;;;;;;;;;6229610;28;20049;-78
2021/09/17 06:11:25;;;;;;;25.45;9.50;;;;;;;;;;6227757;28;20053;-78
2021/09/17 06:14:27;;;;;;;17.35;9.43;;;;;;;;;;6225275;28;20046;-79
2021/09/17 06:17:28;;;;;;;25.05;9.05;;;;;;;;;;6215492;28;20049;-79
2021/09/17 06:20:30;;;;;;;43.83;11.70;;;;;;;;;;6241393;28;20109;-78
2021/09/17 06:23:31;;;;;;;20.52;10.02;;;;;;;;;;6213548;28;20054;-78
2021/09/17 06:26:33;;;;;;;33.85;11.23;;;;;;;;;;6226083;28;20690;-79
2021/09/17 06:29:35;;;;;;;34.00;11.65;;;;;;;;;;6246379;28;20424;-80
2021/09/17 06:32:36;;;;;;;24.58;10.35;;;;;;;;;;6224936;28;20057;-78
2021/09/17 06:35:39;;;;;;;40.20;11.63;;;;;;;;;;6226120;28;20057;-78
2021/09/17 06:38:40;;;;;;;20.55;10.70;;;;;;;;;;6224901;28;20045;-79
2021/09/17 06:41:42;;;;;;;23.35;10.25;;;;;;;;;;6229417;28;20056;-79
2021/09/17 06:44:43;;;;;;;24.33;11.30;;;;;;;;;;6221434;28;20049;-79
2021/09/17 06:47:48;;;;;;;23.73;10.93;;;;;;;;;;6232111;28;20084;-80
2021/09/17 06:50:50;;;;;;;25.88;10.98;;;;;;;;;;6232516;28;20506;-78
2021/09/17 06:53:51;;;;;;;24.48;10.38;;;;;;;;;;6227852;28;20045;-80
2021/09/17 06:56:53;;;;;;;19.50;10.43;;;;;;;;;;6232552;28;20041;-80
2021/09/17 06:59:54;;;;;;;16.25;9.52;;;;;;;;;;6230253;28;20051;-80
2021/09/17 07:02:56;;;;;;;17.13;8.57;;;;;;;;;;6231866;28;20046;-79
2021/09/17 07:05:59;;;;;;;14.27;8.60;;;;;;;;;;6229454;28;20124;-79
2021/09/17 07:09:00;;;;;;;15.75;9.15;;;;;;;;;;6233427;28;20052;-78
2021/09/17 07:12:02;;;;;;;15.45;8.65;;;;;;;;;;6230618;28;20132;-78
2021/09/17 07:15:06;;;;;;;12.63;7.70;;;;;;;;;;6245057;28;20033;-79
2021/09/17 07:18:08;;;;;;;11.68;7.32;;;;;;;;;;6235161;28;20196;-79
2021/09/17 07:21:10;;;;;;;13.25;7.53;;;;;;;;;;6238699;28;20053;-81
2021/09/17 07:24:11;;;;;;;11.50;7.57;;;;;;;;;;6232093;28;20050;-79
2021/09/17 07:27:13;;;;;;;13.63;8.30;;;;;;;;;;6238311;28;20034;-78
2021/09/17 07:30:16;;;;;;;12.95;7.80;;;;;;;;;;6237552;28;20045;-79
2021/09/17 07:33:17;;;;;;;11.15;7.80;;;;;;;;;;6239332;28;20073;-79
2021/09/17 07:36:19;;;;;;;10.70;7.72;;;;;;;;;;6239764;28;20056;-79
2021/09/17 07:39:21;;;;;;;14.43;8.82;;;;;;;;;;6240178;28;20049;-79
2021/09/17 07:42:23;;;;;;;15.98;9.60;;;;;;;;;;6209191;28;20052;-80
2021/09/17 07:45:25;;;;;;;14.77;9.05;;;;;;;;;;6236210;28;20466;-78
2021/09/17 07:48:33;;;;;;;11.98;8.93;;;;;;;;;;6239051;28;20060;-80
2021/09/17 07:51:39;;;;;;;13.85;8.13;;;;;;;;;;6218815;28;20491;-80
2021/09/17 07:54:41;;;;;;;13.50;8.35;;;;;;;;;;6208196;28;20049;-79
2021/09/17 07:57:44;;;;;;;12.02;8.27;;;;;;;;;;6234364;28;20060;-79
2021/09/17 08:00:46;;;;;;;13.02;9.07;;;;;;;;;;6238532;28;20056;-79
2021/09/17 08:03:48;;;;;;;13.77;8.65;;;;;;;;;;6238862;28;20529;-79
2021/09/17 08:06:50;;;;;;;12.57;8.02;;;;;;;;;;6232072;28;20423;-80
2021/09/17 08:09:51;;;;;;;11.40;8.57;;;;;;;;;;6236195;28;20550;-79
2021/09/17 08:12:53;;;;;;;12.75;8.35;;;;;;;;;;6240039;28;20498;-80
2021/09/17 08:15:54;;;;;;;14.55;9.50;;;;;;;;;;6236654;28;20489;-79
2021/09/17 08:18:56;;;;;;;12.63;8.80;;;;;;;;;;6239012;28;20042;-80
2021/09/17 08:21:58;;;;;;;13.13;9.35;;;;;;;;;;6241281;28;20041;-79
2021/09/17 08:24:59;;;;;;;17.15;10.38;;;;;;;;;;6232574;28;20049;-80
2021/09/17 08:28:01;;;;;;;17.42;10.68;;;;;;;;;;6235416;28;20045;-79
2021/09/17 08:31:03;;;;;;;17.48;10.65;;;;;;;;;;6232428;28;20046;-80
2021/09/17 08:34:06;;;;;;;18.63;11.80;;;;;;;;;;6232253;28;20061;-80
2021/09/17 08:37:09;;;;;;;17.85;11.05;;;;;;;;;;6236948;28;20417;-81
2021/09/17 08:40:12;;;;;;;18.17;10.63;;;;;;;;;;6233037;28;20038;-81
2021/09/17 08:43:16;;;;;;;19.58;11.45;;;;;;;;;;6227098;28;20045;-80
2021/09/17 08:46:19;;;;;;;18.67;11.43;;;;;;;;;;6257910;28;20102;-79
2021/09/17 08:49:24;;;;;;;;;;;;;;;;;;6242000;28;20049;-80
2021/09/17 08:52:27;;;;;;;15.98;10.95;;;;;;;;;;6265244;28;20378;-80
2021/09/17 08:55:31;;;;;;;19.13;11.57;;;;;;;;;;6237097;28;20045;-81
2021/09/17 08:58:32;;;;;;;;;;;;;;;;;;6239253;28;20068;-79
2021/09/17 09:01:38;;;;;;;17.50;11.25;;;;;;;;;;6236591;28;20018;-81
2021/09/17 09:04:41;;;;;;;18.15;12.30;;;;;;;;;;6228767;28;20053;-79
2021/09/17 09:07:45;;;;;;;19.42;12.05;;;;;;;;;;6237709;28;20056;-80
2021/09/17 09:10:47;;;;;;;17.27;11.52;;;;;;;;;;6237632;28;20038;-79
2021/09/17 09:14:06;;;;;;;17.38;11.35;;;;;;;;;;6236739;28;20594;-79
2021/09/17 09:17:08;;;;;;;19.63;11.60;;;;;;;;;;6215340;28;20861;-80
2021/09/17 09:20:30;;;;;;;15.15;10.75;;;;;;;;;;6237152;28;20374;-79
2021/09/17 09:23:31;;;;;;;15.05;10.45;;;;;;;;;;6235311;28;20073;-78
2021/09/17 09:26:33;;;;;;;17.70;11.00;;;;;;;;;;6233565;28;20053;-79
2021/09/17 09:29:36;;;;;;;20.20;11.17;;;;;;;;;;6235088;28;20055;-80
2021/09/17 09:32:38;;;;;;;16.92;11.00;;;;;;;;;;6230467;28;20111;-80
2021/09/17 09:35:40;;;;;;;14.48;10.70;;;;;;;;;;6260258;28;20732;-79
2021/09/17 09:38:49;;;;;;;17.42;10.68;;;;;;;;;;6233714;28;20045;-80
2021/09/17 09:41:54;;;;;;;16.25;10.15;;;;;;;;;;6237387;28;20045;-79
2021/09/17 09:45:21;;;;;;;14.80;10.48;;;;;;;;;;6234329;28;20071;-80
2021/09/17 09:48:23;;;;;;;16.88;10.98;;;;;;;;;;6235196;28;20045;-81
2021/09/17 09:51:35;;;;;;;14.85;9.80;;;;;;;;;;6237385;28;20550;-79
2021/09/17 09:54:37;;;;;;;16.27;10.97;;;;;;;;;;6233740;28;20049;-80
2021/09/17 09:57:41;;;;;;;17.25;12.07;;;;;;;;;;6235005;28;20429;-79
2021/09/17 10:00:43;;;;;;;22.25;14.15;;;;;;;;;;6210885;28;20111;-81
2021/09/17 10:03:46;;;;;;;16.77;11.45;;;;;;;;;;6234182;28;20486;-79
2021/09/17 10:06:54;;;;;;;20.45;12.45;;;;;;;;;;6240705;28;20037;-80
2021/09/17 10:09:57;;;;;;;24.08;13.73;;;;;;;;;;6239197;28;20041;-79
2021/09/17 10:12:58;;;;;;;22.27;14.98;;;;;;;;;;6238070;28;21383;-80
2021/09/17 10:16:01;;;;;;;21.33;12.90;;;;;;;;;;6236568;28;20505;-81
2021/09/17 10:19:03;;;;;;;26.65;15.10;;;;;;;;;;6237936;28;20189;-81
2021/09/17 10:22:05;;;;;;;24.58;14.35;;;;;;;;;;6239584;28;20053;-80
2021/09/17 10:25:10;;;;;;;23.27;14.40;;;;;;;;;;6236599;28;20203;-81
2021/09/17 10:28:14;;;;;;;22.92;14.65;;;;;;;;;;6240097;28;20132;-81
2021/09/17 10:31:16;;;;;;;22.13;13.70;;;;;;;;;;6237097;28;20441;-81
2021/09/17 10:34:42;;;;;;;23.40;15.70;;;;;;;;;;6234725;28;20038;-82
2021/09/17 10:37:49;;;;;;;22.00;14.43;;;;;;;;;;6235379;28;20822;-80
2021/09/17 10:40:54;;;;;;;20.52;14.38;;;;;;;;;;6232291;28;20087;-80
2021/09/17 10:43:59;;;;;;;23.27;14.05;;;;;;;;;;6231859;28;20041;-81
2021/09/17 10:47:01;;;;;;;19.90;13.07;;;;;;;;;;6233212;28;20087;-79
2021/09/17 10:50:04;;;;;;;22.85;14.25;;;;;;;;;;6240011;28;20046;-80
2021/09/17 10:53:06;;;;;;;21.73;13.65;;;;;;;;;;6240391;28;20041;-80
2021/09/17 10:56:15;;;;;;;19.43;12.97;;;;;;;;;;6234511;28;20049;-78
2021/09/17 10:59:24;;;;;;;19.45;12.57;;;;;;;;;;6236672;28;20435;-79
2021/09/17 11:02:41;;;;;;;19.85;12.50;;;;;;;;;;6232236;28;20051;-80
2021/09/17 11:05:45;;;;;;;19.23;11.68;;;;;;;;;;6240530;28;20053;-80
2021/09/17 11:08:52;;;;;;;17.70;11.15;;;;;;;;;;6272655;28;20053;-80
2021/09/17 11:11:55;;;;;;;17.55;11.77;;;;;;;;;;6242976;28;20049;-81
2021/09/17 11:15:03;;;;;;;16.05;10.98;;;;;;;;;;6241738;28;20045;-80
2021/09/17 11:18:16;;;;;;;16.63;9.43;;;;;;;;;;6231802;28;20048;-80
2021/09/17 11:21:19;;;;;;;13.23;9.40;;;;;;;;;;6234490;28;20176;-80
2021/09/17 11:24:26;;;;;;;11.18;9.10;;;;;;;;;;6224398;28;20052;-81
2021/09/17 11:27:28;;;;;;;12.18;8.95;;;;;;;;;;6266109;28;20402;-81
2021/09/17 11:30:32;;;;;;;11.10;8.15;;;;;;;;;;6234063;28;20045;-81
2021/09/17 11:33:34;;;;;;;10.35;7.72;;;;;;;;;;6235911;28;20041;-79
2021/09/17 11:36:54;;;;;;;11.32;8.07;;;;;;;;;;6224861;28;20105;-79
2021/09/17 11:40:06;;;;;;;9.10;7.53;;;;;;;;;;6238862;28;20666;-80
2021/09/17 11:43:15;;;;;;;11.57;7.03;;;;;;;;;;6240662;28;20065;-80
2021/09/17 11:46:25;;;;;;;9.15;6.18;;;;;;;;;;6239317;28;20045;-79
2021/09/17 11:49:32;;;;;;;8.52;6.38;;;;;;;;;;6239154;28;20049;-81
2021/09/17 11:52:46;;;;;;;9.80;7.50;;;;;;;;;;6242065;28;20442;-80
2021/09/17 11:55:47;;;;;;;9.57;7.43;;;;;;;;;;6235285;28;20045;-79
2021/09/17 11:58:49;;;;;;;9.32;6.00;;;;;;;;;;6244771;28;20133;-82
2021/09/17 12:02:22;;;;;;;8.70;4.90;;;;;;;;;;6242425;28;20051;-82
2021/09/17 12:05:26;;;;;;;6.38;5.00;;;;;;;;;;6245893;28;20056;-80
2021/09/17 12:08:28;;;;;;;8.80;5.43;;;;;;;;;;6243385;28;20463;-80
2021/09/17 12:11:30;;;;;;;5.75;4.88;;;;;;;;;;6243879;28;20063;-80
2021/09/17 12:14:31;;;;;;;6.00;4.82;;;;;;;;;;6227827;28;20518;-78
2021/09/17 12:17:33;;;;;;;6.25;4.95;;;;;;;;;;6244536;28;20075;-79
2021/09/17 12:20:49;;;;;;;5.00;4.50;;;;;;;;;;6226477;28;20099;-79
2021/09/17 12:23:52;;;;;;;4.40;4.00;;;;;;;;;;6243649;28;20175;-81
2021/09/17 12:26:56;;;;;;;7.00;4.43;;;;;;;;;;6241874;28;20128;-81
2021/09/17 12:30:03;;;;;;;7.88;6.13;;;;;;;;;;6258955;28;20047;-81
2021/09/17 12:33:06;;;;;;;7.07;4.55;;;;;;;;;;6240312;28;20046;-81
2021/09/17 12:36:13;;;;;;;5.13;4.32;;;;;;;;;;6239804;28;20045;-80
2021/09/17 12:39:19;;;;;;;3.80;3.35;;;;;;;;;;6241948;28;20073;-80
2021/09/17 12:42:21;;;;;;;5.15;3.92;;;;;;;;;;6218021;28;20108;-81
2021/09/17 12:45:23;;;;;;;4.97;4.43;;;;;;;;;;6220834;28;20053;-80
2021/09/17 12:48:34;;;;;;;8.00;4.87;;;;;;;;;;6234046;28;20415;-78
2021/09/17 12:51:36;;;;;;;4.60;3.47;;;;;;;;;;6238654;28;20049;-80
2021/09/17 12:54:39;;;;;;;3.45;3.15;;;;;;;;;;6236866;28;20523;-80
2021/09/17 12:57:58;;;;;;;3.55;3.10;;;;;;;;;;6223609;28;20105;-78
2021/09/17 13:01:02;;;;;;;3.67;3.10;;;;;;;;;;6223956;28;20045;-79
2021/09/17 13:04:04;;;;;;;4.93;3.80;;;;;;;;;;6239647;28;20516;-78
2021/09/17 13:07:06;;;;;;;5.32;3.80;;;;;;;;;;6238591;28;20052;-79
2021/09/17 13:10:08;;;;;;;5.80;4.13;;;;;;;;;;6236431;28;20045;-79
2021/09/17 13:13:11;;;;;;;5.25;4.70;;;;;;;;;;6239591;28;20084;-80
2021/09/17 13:16:13;;;;;;;7.25;5.00;;;;;;;;;;6237157;28;20072;-78
2021/09/17 13:19:16;;;;;;;5.40;4.68;;;;;;;;;;6239753;28;20049;-80
2021/09/17 13:22:18;;;;;;;5.88;5.00;;;;;;;;;;6237282;28;20045;-80
2021/09/17 13:25:21;;;;;;;5.90;4.88;;;;;;;;;;6239018;28;20060;-80
2021/09/17 13:28:22;;;;;;;5.55;4.95;;;;;;;;;;6239414;28;20045;-81
2021/09/17 13:31:24;;;;;;;7.18;5.18;;;;;;;;;;6222099;28;20056;-79
2021/09/17 13:34:25;;;;;;;6.37;5.77;;;;;;;;;;6239783;28;20411;-80
2021/09/17 13:37:27;;;;;;;6.35;5.30;;;;;;;;;;6237856;28;20550;-80
2021/09/17 13:40:30;;;;;;;5.63;5.05;;;;;;;;;;6238548;28;20526;-80
2021/09/17 13:43:32;;;;;;;5.75;4.90;;;;;;;;;;6237391;28;20044;-80
2021/09/17 13:46:33;;;;;;;5.00;4.10;;;;;;;;;;6238797;28;20045;-80
2021/09/17 13:49:35;;;;;;;5.67;4.33;;;;;;;;;;6240448;28;20410;-79
2021/09/17 13:52:37;;;;;;;4.47;4.07;;;;;;;;;;6238993;28;20067;-80
2021/09/17 13:55:39;;;;;;;4.30;3.90;;;;;;;;;;6238616;28;20118;-79
2021/09/17 13:58:41;;;;;;;4.30;3.90;;;;;;;;;;6238579;28;20410;-79
2021/09/17 14:01:42;;;;;;;5.28;3.90;;;;;;;;;;6236496;28;20049;-80
2021/09/17 14:04:45;;;;;;;4.50;4.10;;;;;;;;;;6239008;28;20049;-79
2021/09/17 14:07:46;;;;;;;5.22;3.85;;;;;;;;;;6238595;28;20049;-80
2021/09/17 14:10:48;;;;;;;4.80;4.00;;;;;;;;;;6236492;28;20421;-79
2021/09/17 14:13:50;;;;;;;5.40;4.57;;;;;;;;;;6236898;28;20060;-78
2021/09/17 14:16:52;;;;;;;7.35;5.10;;;;;;;;;;6236359;28;20120;-79
2021/09/17 14:19:53;;;;;;;5.22;4.65;;;;;;;;;;6238913;28;20033;-79
2021/09/17 14:22:55;;;;;;;7.17;5.37;;;;;;;;;;6242320;28;20052;-79
2021/09/17 14:25:57;;;;;;;7.28;6.20;;;;;;;;;;6229982;28;20554;-80
2021/09/17 14:28:58;;;;;;;7.53;6.25;;;;;;;;;;6218333;28;20150;-79
2021/09/17 14:32:00;;;;;;;7.00;6.30;;;;;;;;;;6227465;28;20045;-80
2021/09/17 14:35:04;;;;;;;8.05;7.25;;;;;;;;;;6217658;28;20045;-80
2021/09/17 14:38:05;;;;;;;8.38;6.63;;;;;;;;;;6221733;28;20038;-79
2021/09/17 14:41:07;;;;;;;9.27;7.80;;;;;;;;;;6220004;28;20124;-79
2021/09/17 14:44:10;;;;;;;9.48;7.18;;;;;;;;;;6219049;28;20046;-78
2021/09/17 14:47:11;;;;;;;9.77;7.40;;;;;;;;;;6222136;28;20045;-80
2021/09/17 14:50:13;;;;;;;9.20;7.30;;;;;;;;;;6221390;28;20042;-80
2021/09/17 14:53:14;;;;;;;7.53;6.50;;;;;;;;;;6219402;28;20136;-78
2021/09/17 14:56:16;;;;;;;9.70;7.57;;;;;;;;;;6232316;28;20237;-79
2021/09/17 14:59:18;;;;;;;8.20;7.10;;;;;;;;;;6223630;28;20502;-80
2021/09/17 15:02:20;;;;;;;8.55;6.97;;;;;;;;;;6240994;28;20045;-79
2021/09/17 15:05:22;;;;;;;11.35;7.95;;;;;;;;;;6239902;28;20525;-80
2021/09/17 15:08:24;;;;;;;10.65;8.55;;;;;;;;;;6239414;28;20528;-79
2021/09/17 15:11:29;;;;;;;8.57;7.35;;;;;;;;;;6224113;28;20120;-81
2021/09/17 15:14:30;;;;;;;13.05;8.20;;;;;;;;;;6224012;28;20042;-81
2021/09/17 15:17:34;;;;;;;11.30;7.90;;;;;;;;;;6222458;28;20052;-81
2021/09/17 15:20:37;;;;;;;11.00;7.80;;;;;;;;;;6243266;28;20132;-79
2021/09/17 15:23:39;;;;;;;8.43;7.47;;;;;;;;;;6242843;28;20519;-81
2021/09/17 15:26:40;;;;;;;13.07;8.43;;;;;;;;;;6238575;28;20052;-79
2021/09/17 15:29:42;;;;;;;12.75;8.90;;;;;;;;;;6240862;28;20045;-80
2021/09/17 15:32:43;;;;;;;10.45;8.00;;;;;;;;;;6238373;28;20053;-81
2021/09/17 15:35:45;;;;;;;11.77;8.63;;;;;;;;;;6242951;28;20053;-80
2021/09/17 15:38:47;;;;;;;9.27;8.10;;;;;;;;;;6240039;28;20050;-80
2021/09/17 15:41:49;;;;;;;11.27;8.43;;;;;;;;;;6242232;28;20056;-79
2021/09/17 15:44:51;;;;;;;10.23;7.80;;;;;;;;;;6236860;28;20048;-78
2021/09/17 15:47:53;;;;;;;11.18;8.70;;;;;;;;;;6238764;28;20041;-80
2021/09/17 15:50:55;;;;;;;10.10;8.07;;;;;;;;;;6241442;28;20054;-80
2021/09/17 15:54:01;;;;;;;9.93;8.48;;;;;;;;;;6237782;28;20037;-79
2021/09/17 15:57:03;;;;;;;10.55;8.80;;;;;;;;;;6242810;28;20490;-80
2021/09/17 16:00:07;;;;;;;11.07;7.70;;;;;;;;;;6240737;28;20148;-80
2021/09/17 16:03:12;;;;;;;9.40;7.15;;;;;;;;;;6241835;28;20047;-81
2021/09/17 16:06:14;;;;;;;10.93;8.63;;;;;;;;;;6242129;28;20056;-81
2021/09/17 16:09:15;;;;;;;11.65;8.70;;;;;;;;;;6241335;28;20041;-80
2021/09/17 16:12:22;;;;;;;11.77;8.05;;;;;;;;;;6240137;28;20041;-81
2021/09/17 16:15:24;;;;;;;9.80;8.25;;;;;;;;;;6239547;28;20052;-80
2021/09/17 16:18:25;;;;;;;9.13;7.45;;;;;;;;;;6243711;28;20104;-79
2021/09/17 16:21:27;;;;;;;8.63;7.53;;;;;;;;;;6243755;28;20081;-81
2021/09/17 16:24:29;;;;;;;8.70;7.18;;;;;;;;;;6240264;28;20037;-81
2021/09/17 16:27:31;;;;;;;10.52;8.18;;;;;;;;;;6241856;28;20041;-81
2021/09/17 16:30:33;;;;;;;8.63;7.47;;;;;;;;;;6240843;28;20065;-81
2021/09/17 16:33:35;;;;;;;10.23;7.35;;;;;;;;;;6272067;28;20100;-79
2021/09/17 16:36:39;;;;;;;9.00;7.72;;;;;;;;;;6239032;28;20522;-81
2021/09/17 16:39:40;;;;;;;9.02;7.50;;;;;;;;;;6231673;28;20049;-80
2021/09/17 16:42:43;;;;;;;8.40;7.50;;;;;;;;;;6198560;28;20119;-80
2021/09/17 16:45:47;;;;;;;10.07;7.60;;;;;;;;;;6251548;28;20045;-79
2021/09/17 16:48:50;;;;;;;10.88;7.88;;;;;;;;;;6240112;28;20049;-81
2021/09/17 16:51:52;;;;;;;8.82;7.60;;;;;;;;;;6242787;28;20052;-81
2021/09/17 16:54:53;;;;;;;9.40;7.60;;;;;;;;;;6241020;28;20048;-80
2021/09/17 16:57:55;;;;;;;11.10;7.63;;;;;;;;;;6241817;28;20041;-81
2021/09/17 17:00:58;;;;;;;;;;;;;;;;;;6256128;28;20052;-80
2021/09/17 17:04:03;;;;;;;8.50;7.22;;;;;;;;;;6239385;28;19980;-80
2021/09/17 17:07:05;;;;;;;8.52;7.63;;;;;;;;;;6240354;28;20052;-79
2021/09/17 17:10:08;;;;;;;9.55;7.80;;;;;;;;;;6238259;28;20162;-80
2021/09/17 17:13:10;;;;;;;8.82;7.78;;;;;;;;;;6218195;28;20133;-80
2021/09/17 17:16:14;;;;;;;9.27;7.55;;;;;;;;;;6220666;28;20033;-80
2021/09/17 17:19:17;;;;;;;8.88;7.97;;;;;;;;;;6240376;28;20095;-81
2021/09/17 17:22:20;;;;;;;8.48;7.55;;;;;;;;;;6239991;28;20084;-82
2021/09/17 17:25:21;;;;;;;10.25;8.82;;;;;;;;;;6235613;28;20045;-79
2021/09/17 17:28:23;;;;;;;9.95;8.30;;;;;;;;;;6235814;28;20068;-81
2021/09/17 17:31:26;;;;;;;8.88;7.93;;;;;;;;;;6223283;28;20704;-81
2021/09/17 17:34:29;;;;;;;10.38;8.50;;;;;;;;;;6215235;28;20050;-81
2021/09/17 17:37:34;;;;;;;9.18;8.25;;;;;;;;;;6212326;28;20050;-80
2021/09/17 17:40:37;;;;;;;9.40;8.20;;;;;;;;;;6224169;28;20059;-79
2021/09/17 17:43:40;;;;;;;10.57;8.30;;;;;;;;;;6228525;28;20104;-81
2021/09/17 17:46:42;;;;;;;11.45;9.20;;;;;;;;;;6206383;28;20426;-81
2021/09/17 17:49:44;;;;;;;9.27;7.93;;;;;;;;;;6216177;28;20056;-79
2021/09/17 17:52:45;;;;;;;8.88;7.97;;;;;;;;;;6214334;28;20119;-79
2021/09/17 17:55:47;;;;;;;10.18;8.55;;;;;;;;;;6237972;28;20064;-81
2021/09/17 17:58:50;;;;;;;11.50;8.48;;;;;;;;;;6223473;28;20045;-80
2021/09/17 18:01:52;;;;;;;10.98;9.02;;;;;;;;;;6238287;28;20057;-80